createdAt,value
2022-12-05T00:01:18.806Z,96380.72
2022-12-05T00:03:47.177Z,96385.06
2022-12-05T00:06:15.223Z,96376.66
2022-12-05T00:08:43.027Z,96380.19
2022-12-05T00:11:15.439Z,96406.03
2022-12-05T00:13:45.740Z,96412.81
2022-12-05T00:16:16.510Z,96410.75
2022-12-05T00:18:44.437Z,96416.88
2022-12-05T00:21:15.184Z,96426.41
2022-12-05T00:23:42.813Z,96423.66
2022-12-05T00:26:11.207Z,96421.91
2022-12-05T00:28:39.079Z,96433.84
2022-12-05T00:31:08.734Z,96438.09
2022-12-05T00:33:37.735Z,96438.88
2022-12-05T00:36:07.634Z,96451.66
2022-12-05T00:38:35.364Z,96448.78
2022-12-05T00:41:04.292Z,96434.88
2022-12-05T00:43:31.855Z,96431.66
2022-12-05T00:46:02.413Z,96436.66
2022-12-05T00:48:31.064Z,96441.00
2022-12-05T00:51:04.023Z,96447.78
2022-12-05T00:53:31.689Z,96449.75
2022-12-05T00:56:03.565Z,96443.25
2022-12-05T00:58:31.232Z,96443.25
2022-12-05T01:00:59.368Z,96436.44
2022-12-05T01:03:27.006Z,96446.13
2022-12-05T01:05:54.637Z,96454.03
2022-12-05T01:08:23.458Z,96468.03
2022-12-05T01:10:54.979Z,96466.44
2022-12-05T01:13:23.180Z,96469.16
2022-12-05T01:15:50.905Z,96465.09
2022-12-05T01:18:18.943Z,96477.34
2022-12-05T01:20:47.142Z,96493.53
2022-12-05T01:23:15.116Z,96488.22
2022-12-05T01:25:46.592Z,96481.94
2022-12-05T01:28:14.868Z,96491.97
2022-12-05T01:30:48.483Z,96500.38
2022-12-05T01:33:17.059Z,96512.63
2022-12-05T01:35:45.115Z,96516.19
2022-12-05T01:38:13.835Z,96519.72
2022-12-05T01:40:42.303Z,96520.56
2022-12-05T01:43:16.747Z,96526.53
2022-12-05T01:45:46.727Z,96528.44
2022-12-05T01:48:19.145Z,96534.56
2022-12-05T01:50:48.589Z,96535.84
2022-12-05T01:53:17.235Z,96545.63
2022-12-05T01:55:46.327Z,96542.38
2022-12-05T01:58:16.592Z,96535.44
2022-12-05T02:00:44.868Z,96542.69
2022-12-05T02:03:18.159Z,96549.22
2022-12-05T02:05:49.518Z,96564.88
2022-12-05T02:08:17.591Z,96563.13
2022-12-05T02:10:47.386Z,96558.22
2022-12-05T02:13:50.565Z,96552.25
2022-12-05T02:16:28.528Z,96555.78
2022-12-05T02:19:13.903Z,96545.97
2022-12-05T02:22:01.393Z,96536.44
2022-12-05T02:25:04.280Z,96537.44
2022-12-05T02:27:58.763Z,96538.22
2022-12-05T02:30:30.551Z,96539.47
2022-12-05T02:33:08.125Z,96529.44
2022-12-05T02:35:47.811Z,96527.00
2022-12-05T02:38:25.996Z,96526.88
2022-12-05T02:41:03.403Z,96527.53
2022-12-05T02:43:38.128Z,96550.09
2022-12-05T02:46:11.020Z,96569.56
2022-12-05T02:48:39.750Z,96580.03
2022-12-05T02:51:10.548Z,96587.94
2022-12-05T02:53:39.963Z,96580.03
2022-12-05T02:56:08.678Z,96583.94
2022-12-05T02:58:43.034Z,96603.38
2022-12-05T03:01:12.434Z,96611.78
2022-12-05T03:03:40.080Z,96601.19
2022-12-05T03:06:14.278Z,96596.84
2022-12-05T03:08:46.553Z,96582.13
2022-12-05T03:11:15.457Z,96591.13
2022-12-05T03:13:46.710Z,96588.69
2022-12-05T03:16:21.084Z,96587.19
2022-12-05T03:18:52.264Z,96579.75
2022-12-05T03:21:26.981Z,96563.59
2022-12-05T03:23:59.245Z,96556.78
2022-12-05T03:26:38.713Z,96560.78
2022-12-05T03:29:25.077Z,96567.84
2022-12-05T03:32:01.185Z,96577.88
2022-12-05T03:34:43.316Z,96581.97
2022-12-05T03:37:16.021Z,96581.13
2022-12-05T03:39:49.035Z,96581.44
2022-12-05T03:42:23.483Z,96577.88
2022-12-05T03:44:56.147Z,96580.31
2022-12-05T03:47:31.489Z,96582.91
2022-12-05T03:50:04.316Z,96585.47
2022-12-05T03:52:45.989Z,96586.16
2022-12-05T03:55:24.465Z,96584.81
2022-12-05T03:57:58.458Z,96596.13
2022-12-05T04:00:27.036Z,96593.78
2022-12-05T04:02:58.856Z,96593.13
2022-12-05T04:05:32.289Z,96598.28
2022-12-05T04:08:04.725Z,96606.88
2022-12-05T04:10:48.284Z,96607.53
2022-12-05T04:13:19.398Z,96603.19
2022-12-05T04:16:09.538Z,96594.47
2022-12-05T04:18:43.720Z,96594.19
2022-12-05T04:21:30.009Z,96599.38
2022-12-05T04:24:15.286Z,96604.53
2022-12-05T04:26:49.318Z,96603.84
2022-12-05T04:29:26.835Z,96599.50
2022-12-05T04:31:59.919Z,96600.44
2022-12-05T04:34:30.562Z,96598.97
2022-12-05T04:37:04.365Z,96606.72
2022-12-05T04:39:38.430Z,96609.97
2022-12-05T04:42:08.804Z,96613.22
2022-12-05T04:44:41.646Z,96616.59
2022-12-05T04:47:11.235Z,96618.13
2022-12-05T04:49:42.186Z,96620.28
2022-12-05T04:52:12.313Z,96618.81
2022-12-05T04:54:44.630Z,96613.66
2022-12-05T04:57:18.612Z,96613.78
2022-12-05T04:59:46.699Z,96606.47
2022-12-05T05:02:19.188Z,96605.13
2022-12-05T05:04:51.984Z,96610.56
2022-12-05T05:07:20.223Z,96624.97
2022-12-05T05:09:47.803Z,96621.69
2022-12-05T05:12:19.004Z,96625.25
2022-12-05T05:14:47.006Z,96620.09
2022-12-05T05:17:14.606Z,96623.34
2022-12-05T05:19:42.171Z,96613.81
2022-12-05T05:22:11.017Z,96615.59
2022-12-05T05:24:38.542Z,96619.78
2022-12-05T05:27:06.051Z,96627.53
2022-12-05T05:29:33.588Z,96630.13
2022-12-05T05:32:01.080Z,96630.13
2022-12-05T05:34:28.708Z,96628.78
2022-12-05T05:36:56.222Z,96633.41
2022-12-05T05:39:26.825Z,96628.25
2022-12-05T05:41:54.330Z,96636.13
2022-12-05T05:44:21.861Z,96636.41
2022-12-05T05:46:49.435Z,96650.28
2022-12-05T05:49:17.028Z,96645.09
2022-12-05T05:51:44.575Z,96652.03
2022-12-05T05:54:12.133Z,96644.44
2022-12-05T05:56:41.110Z,96645.41
2022-12-05T05:59:08.638Z,96648.91
2022-12-05T06:01:36.143Z,96652.16
2022-12-05T06:04:03.770Z,96646.06
2022-12-05T06:06:31.379Z,96647.69
2022-12-05T06:08:58.911Z,96643.50
2022-12-05T06:11:28.520Z,96651.25
2022-12-05T06:13:58.432Z,96654.63
2022-12-05T06:16:26.484Z,96655.44
2022-12-05T06:18:54.763Z,96661.41
2022-12-05T06:21:23.049Z,96658.97
2022-12-05T06:23:51.234Z,96660.72
2022-12-05T06:26:21.597Z,96658.31
2022-12-05T06:28:49.779Z,96661.81
2022-12-05T06:31:20.840Z,96663.47
2022-12-05T06:33:48.564Z,96664.41
2022-12-05T06:36:18.086Z,96662.78
2022-12-05T06:38:45.672Z,96660.34
2022-12-05T06:41:16.315Z,96673.38
2022-12-05T06:43:44.556Z,96674.34
2022-12-05T06:46:14.336Z,96686.16
2022-12-05T06:48:43.342Z,96686.16
2022-12-05T06:51:11.779Z,96682.59
2022-12-05T06:53:39.471Z,96677.44
2022-12-05T06:56:12.359Z,96685.34
2022-12-05T06:58:39.935Z,96686.44
2022-12-05T07:01:30.242Z,96681.94
2022-12-05T07:03:59.329Z,96678.53
2022-12-05T07:06:27.412Z,96686.94
2022-12-05T07:08:54.955Z,96698.25
2022-12-05T07:11:22.502Z,96700.81
2022-12-05T07:13:50.035Z,96708.69
2022-12-05T07:16:17.600Z,96701.09
2022-12-05T07:18:45.206Z,96709.78
2022-12-05T07:21:16.432Z,96717.53
2022-12-05T07:23:46.120Z,96719.03
2022-12-05T07:26:17.397Z,96712.09
2022-12-05T07:28:44.939Z,96723.25
2022-12-05T07:31:14.480Z,96723.38
2022-12-05T07:33:42.231Z,96716.56
2022-12-05T07:36:12.217Z,96722.69
2022-12-05T07:38:41.506Z,96740.88
2022-12-05T07:41:13.534Z,96751.06
2022-12-05T07:43:41.386Z,96745.91
2022-12-05T07:46:11.285Z,96754.34
2022-12-05T07:48:39.327Z,96751.75
2022-12-05T07:51:08.610Z,96753.38
2022-12-05T07:53:36.606Z,96751.47
2022-12-05T07:56:07.553Z,96758.97
2022-12-05T07:58:35.984Z,96755.28
2022-12-05T08:01:07.785Z,96746.56
2022-12-05T08:03:35.369Z,96751.63
2022-12-05T08:06:04.383Z,96741.28
2022-12-05T08:08:31.982Z,96746.44
2022-12-05T08:11:05.791Z,96742.09
2022-12-05T08:13:33.466Z,96742.91
2022-12-05T08:16:03.622Z,96749.16
2022-12-05T08:18:31.813Z,96743.47
2022-12-05T08:21:03.390Z,96750.78
2022-12-05T08:23:31.817Z,96744.03
2022-12-05T08:26:02.948Z,96745.91
2022-12-05T08:28:32.597Z,96751.06
2022-12-05T08:31:05.330Z,96754.34
2022-12-05T08:33:32.748Z,96758.41
2022-12-05T08:36:02.207Z,96759.75
2022-12-05T08:38:29.858Z,96763.19
2022-12-05T08:40:57.397Z,96772.66
2022-12-05T08:43:24.881Z,96776.88
2022-12-05T08:45:54.513Z,96786.94
2022-12-05T08:48:29.025Z,96786.66
2022-12-05T08:50:57.365Z,96789.94
2022-12-05T08:53:24.877Z,96791.28
2022-12-05T08:55:52.638Z,96786.66
2022-12-05T08:58:20.195Z,96788.84
2022-12-05T09:00:47.749Z,96784.34
2022-12-05T09:03:16.581Z,96787.59
2022-12-05T09:05:44.108Z,96787.47
2022-12-05T09:08:12.208Z,96788.00
2022-12-05T09:10:39.783Z,96793.03
2022-12-05T09:13:07.344Z,96811.66
2022-12-05T09:15:34.926Z,96800.25
2022-12-05T09:18:02.491Z,96803.09
2022-12-05T09:20:31.351Z,96804.31
2022-12-05T09:22:58.899Z,96806.63
2022-12-05T09:25:26.413Z,96808.09
2022-12-05T09:27:54.755Z,96808.66
2022-12-05T09:30:22.324Z,96814.34
2022-12-05T09:32:49.834Z,96821.81
2022-12-05T09:35:17.386Z,96830.25
2022-12-05T09:37:46.233Z,96842.22
2022-12-05T09:40:17.736Z,96843.69
2022-12-05T09:42:57.436Z,96838.25
2022-12-05T09:45:29.913Z,96847.50
2022-12-05T09:48:01.222Z,96843.69
2022-12-05T09:50:31.483Z,96843.41
2022-12-05T09:53:12.513Z,96838.78
2022-12-05T09:55:47.070Z,96836.06
2022-12-05T09:58:22.927Z,96834.41
2022-12-05T10:00:53.863Z,96832.50
2022-12-05T10:03:28.552Z,96831.56
2022-12-05T10:06:05.883Z,96834.16
2022-12-05T10:08:42.905Z,96838.06
2022-12-05T10:11:15.282Z,96840.38
2022-12-05T10:13:54.907Z,96832.50
2022-12-05T10:16:30.379Z,96831.41
2022-12-05T10:19:03.733Z,96815.59
2022-12-05T10:21:34.528Z,96823.09
2022-12-05T10:24:05.885Z,96825.38
2022-12-05T10:26:37.671Z,96813.13
2022-12-05T10:29:22.355Z,96806.06
2022-12-05T10:31:51.107Z,96807.66
2022-12-05T10:34:28.953Z,96805.06
2022-12-05T10:37:01.790Z,96790.25
2022-12-05T10:39:30.537Z,96794.03
2022-12-05T10:41:58.210Z,96794.03
2022-12-05T10:44:25.940Z,96794.84
2022-12-05T10:46:53.589Z,96795.66
2022-12-05T10:49:22.022Z,96786.78
2022-12-05T10:51:50.071Z,96789.78
2022-12-05T10:54:21.807Z,96803.22
2022-12-05T10:56:52.388Z,96797.78
2022-12-05T10:59:21.843Z,96793.13
2022-12-05T11:01:53.228Z,96792.72
2022-12-05T11:04:25.710Z,96794.19
2022-12-05T11:06:57.571Z,96796.47
2022-12-05T11:09:27.335Z,96805.72
2022-12-05T11:12:04.044Z,96806.56
2022-12-05T11:14:33.432Z,96801.22
2022-12-05T11:17:02.891Z,96803.66
2022-12-05T11:19:32.955Z,96799.16
2022-12-05T11:22:01.323Z,96796.56
2022-12-05T11:24:31.439Z,96793.19
2022-12-05T11:27:02.045Z,96793.00
2022-12-05T11:29:32.384Z,96799.81
2022-12-05T11:31:59.912Z,96791.09
2022-12-05T11:34:32.873Z,96791.09
2022-12-05T11:37:05.905Z,96792.75
2022-12-05T11:39:34.043Z,96791.75
2022-12-05T11:42:17.955Z,96799.25
2022-12-05T11:45:23.093Z,96799.94
2022-12-05T11:48:03.562Z,96806.56
2022-12-05T11:50:43.777Z,96811.44
2022-12-05T11:53:40.352Z,96810.66
2022-12-05T11:56:19.099Z,96803.56
2022-12-05T11:59:03.261Z,96810.06
2022-12-05T12:01:46.314Z,96804.59
2022-12-05T12:04:21.777Z,96813.56
2022-12-05T12:07:02.705Z,96809.84
2022-12-05T12:09:41.308Z,96811.47
2022-12-05T12:12:21.164Z,96814.06
2022-12-05T12:14:59.909Z,96806.47
2022-12-05T12:17:35.297Z,96806.59
2022-12-05T12:20:07.751Z,96808.75
2022-12-05T12:22:52.177Z,96799.84
2022-12-05T12:25:27.067Z,96805.72
2022-12-05T12:28:06.195Z,96803.78
2022-12-05T12:30:47.895Z,96802.88
2022-12-05T12:33:26.947Z,96798.50
2022-12-05T12:36:02.032Z,96802.88
2022-12-05T12:38:59.132Z,96794.13
2022-12-05T12:41:42.858Z,96788.63
2022-12-05T12:44:40.170Z,96795.47
2022-12-05T12:47:18.157Z,96795.31
2022-12-05T12:50:03.651Z,96799.38
2022-12-05T12:52:46.047Z,96803.59
2022-12-05T12:55:22.521Z,96801.66
2022-12-05T12:58:01.503Z,96800.72
2022-12-05T13:00:40.852Z,96809.31
2022-12-05T13:03:17.339Z,96809.31
2022-12-05T13:05:48.838Z,96801.38
2022-12-05T13:08:25.026Z,96801.09
2022-12-05T13:10:53.382Z,96805.94
2022-12-05T13:13:25.172Z,96804.03
2022-12-05T13:15:55.838Z,96802.09
2022-12-05T13:18:26.360Z,96802.28
2022-12-05T13:20:56.562Z,96808.25
2022-12-05T13:23:27.673Z,96798.72
2022-12-05T13:25:58.624Z,96791.75
2022-12-05T13:28:31.664Z,96794.06
2022-12-05T13:31:02.745Z,96798.44
2022-12-05T13:33:37.908Z,96791.47
2022-12-05T13:36:29.603Z,96793.06
2022-12-05T13:39:17.562Z,96792.28
2022-12-05T13:42:04.797Z,96795.66
2022-12-05T13:44:39.309Z,96790.47
2022-12-05T13:47:10.126Z,96793.06
2022-12-05T13:49:45.693Z,96791.16
2022-12-05T13:52:16.839Z,96785.69
2022-12-05T13:54:48.320Z,96792.34
2022-12-05T13:57:47.617Z,96794.47
2022-12-05T14:00:27.137Z,96800.16
2022-12-05T14:02:56.784Z,96807.78
2022-12-05T14:05:40.022Z,96803.41
2022-12-05T14:08:47.674Z,96803.94
2022-12-05T14:11:15.232Z,96811.41
2022-12-05T14:13:45.235Z,96806.88
2022-12-05T14:16:44.257Z,96805.78
2022-12-05T14:19:46.373Z,96806.72
2022-12-05T14:22:50.648Z,96812.59
2022-12-05T14:25:32.060Z,96815.84
2022-12-05T14:28:11.788Z,96797.84
2022-12-05T14:30:53.161Z,96806.44
2022-12-05T14:33:23.713Z,96809.84
2022-12-05T14:35:53.635Z,96803.69
2022-12-05T14:38:24.785Z,96811.00
2022-12-05T14:40:53.660Z,96804.88
2022-12-05T14:43:27.320Z,96806.66
2022-12-05T14:46:01.417Z,96801.47
2022-12-05T14:48:32.746Z,96809.38
2022-12-05T14:51:01.767Z,96807.91
2022-12-05T14:53:38.538Z,96809.84
2022-12-05T14:56:16.185Z,96805.47
2022-12-05T14:58:49.783Z,96808.53
2022-12-05T15:01:21.836Z,96806.22
2022-12-05T15:04:09.177Z,96806.06
2022-12-05T15:06:46.323Z,96800.75
2022-12-05T15:09:38.516Z,96804.28
2022-12-05T15:12:14.063Z,96805.25
2022-12-05T15:14:47.300Z,96808.00
2022-12-05T15:17:19.331Z,96811.72
2022-12-05T15:19:58.391Z,96812.81
2022-12-05T15:22:29.058Z,96820.75
2022-12-05T15:24:56.968Z,96823.66
2022-12-05T15:27:26.129Z,96827.84
2022-12-05T15:29:56.468Z,96829.50
2022-12-05T15:32:28.704Z,96828.97
2022-12-05T15:35:02.347Z,96826.53
2022-12-05T15:37:35.678Z,96828.31
2022-12-05T15:40:09.794Z,96827.50
2022-12-05T15:42:43.249Z,96833.63
2022-12-05T15:45:21.670Z,96835.25
2022-12-05T15:47:50.684Z,96835.25
2022-12-05T15:50:24.904Z,96830.91
2022-12-05T15:52:58.433Z,96832.69
2022-12-05T15:55:30.404Z,96839.47
2022-12-05T15:58:11.223Z,96840.44
2022-12-05T16:00:44.011Z,96856.00
2022-12-05T16:03:17.682Z,96852.75
2022-12-05T16:05:52.091Z,96852.06
2022-12-05T16:08:20.141Z,96860.16
2022-12-05T16:10:47.873Z,96851.84
2022-12-05T16:13:27.849Z,96850.25
2022-12-05T16:15:56.249Z,96856.38
2022-12-05T16:18:28.378Z,96854.75
2022-12-05T16:20:56.359Z,96854.06
2022-12-05T16:23:27.526Z,96852.56
2022-12-05T16:26:10.569Z,96852.56
2022-12-05T16:28:39.401Z,96856.13
2022-12-05T16:31:07.774Z,96846.91
2022-12-05T16:33:40.202Z,96850.44
2022-12-05T16:36:11.643Z,96854.13
2022-12-05T16:38:40.804Z,96856.72
2022-12-05T16:41:09.229Z,96848.28
2022-12-05T16:43:46.177Z,96853.63
2022-12-05T16:46:42.292Z,96857.97
2022-12-05T16:49:22.158Z,96848.59
2022-12-05T16:51:59.654Z,96862.47
2022-12-05T16:54:27.227Z,96862.78
2022-12-05T16:56:55.003Z,96865.00
2022-12-05T16:59:27.888Z,96859.94
2022-12-05T17:01:55.524Z,96857.06
2022-12-05T17:04:23.104Z,96855.56
2022-12-05T17:06:50.674Z,96854.09
2022-12-05T17:09:18.143Z,96843.19
2022-12-05T17:11:48.078Z,96852.88
2022-12-05T17:14:18.076Z,96842.69
2022-12-05T17:16:47.228Z,96853.50
2022-12-05T17:19:15.050Z,96857.16
2022-12-05T17:21:43.629Z,96854.75
2022-12-05T17:24:16.530Z,96850.50
2022-12-05T17:26:44.552Z,96854.19
2022-12-05T17:29:14.851Z,96850.00
2022-12-05T17:31:42.453Z,96848.50
2022-12-05T17:34:16.630Z,96847.69
2022-12-05T17:36:44.334Z,96854.28
2022-12-05T17:39:11.943Z,96854.28
2022-12-05T17:41:39.513Z,96852.94
2022-12-05T17:44:07.973Z,96869.25
2022-12-05T17:46:35.526Z,96860.38
2022-12-05T17:49:03.178Z,96853.88
2022-12-05T17:51:32.333Z,96857.56
2022-12-05T17:53:59.881Z,96860.03
2022-12-05T17:56:27.380Z,96860.81
2022-12-05T17:58:54.885Z,96862.47
2022-12-05T18:01:22.462Z,96863.28
2022-12-05T18:03:50.074Z,96864.38
2022-12-05T18:06:18.592Z,96860.97
2022-12-05T18:08:47.450Z,96861.25
2022-12-05T18:11:16.534Z,96861.38
2022-12-05T18:13:44.040Z,96868.47
2022-12-05T18:16:12.236Z,96874.63
2022-12-05T18:18:40.269Z,96875.56
2022-12-05T18:21:09.519Z,96875.72
2022-12-05T18:23:38.229Z,96875.06
2022-12-05T18:26:12.434Z,96879.13
2022-12-05T18:28:40.665Z,96885.09
2022-12-05T18:31:10.705Z,96884.97
2022-12-05T18:33:38.305Z,96892.75
2022-12-05T18:36:29.615Z,96891.09
2022-12-05T18:38:59.379Z,96891.25
2022-12-05T18:41:28.655Z,96890.59
2022-12-05T18:43:56.277Z,96897.09
2022-12-05T18:46:24.850Z,96895.47
2022-12-05T18:48:52.470Z,96899.81
2022-12-05T18:51:22.083Z,96898.03
2022-12-05T18:53:53.264Z,96896.13
2022-12-05T18:56:24.622Z,96896.13
2022-12-05T18:59:00.303Z,96899.94
2022-12-05T19:01:31.336Z,96908.22
2022-12-05T19:04:00.733Z,96901.69
2022-12-05T19:06:30.614Z,96907.69
2022-12-05T19:09:01.019Z,96905.91
2022-12-05T19:11:29.946Z,96910.41
2022-12-05T19:14:01.458Z,96911.78
2022-12-05T19:16:37.449Z,96908.22
2022-12-05T19:19:17.068Z,96913.13
2022-12-05T19:21:46.771Z,96912.28
2022-12-05T19:24:24.514Z,96910.00
2022-12-05T19:26:55.799Z,96912.56
2022-12-05T19:29:31.451Z,96908.38
2022-12-05T19:32:01.395Z,96908.50
2022-12-05T19:34:29.226Z,96903.75
2022-12-05T19:36:57.231Z,96904.03
2022-12-05T19:39:27.079Z,96905.00
2022-12-05T19:41:57.451Z,96911.94
2022-12-05T19:44:27.260Z,96909.38
2022-12-05T19:46:55.305Z,96909.38
2022-12-05T19:49:24.030Z,96913.03
2022-12-05T19:51:52.620Z,96914.13
2022-12-05T19:54:22.049Z,96920.53
2022-12-05T19:56:49.886Z,96917.28
2022-12-05T19:59:18.182Z,96905.31
2022-12-05T20:01:50.946Z,96914.19
2022-12-05T20:04:18.809Z,96908.88
2022-12-05T20:06:48.680Z,96907.53
2022-12-05T20:09:19.152Z,96911.22
2022-12-05T20:11:56.049Z,96907.94
2022-12-05T20:14:26.987Z,96904.53
2022-12-05T20:16:57.232Z,96899.34
2022-12-05T20:19:25.181Z,96897.44
2022-12-05T20:21:55.107Z,96900.69
2022-12-05T20:24:22.848Z,96896.19
2022-12-05T20:26:50.484Z,96906.41
2022-12-05T20:29:18.079Z,96902.84
2022-12-05T20:31:45.808Z,96909.13
2022-12-05T20:34:15.782Z,96907.53
2022-12-05T20:36:44.058Z,96911.03
2022-12-05T20:39:14.619Z,96911.34
2022-12-05T20:41:42.370Z,96902.91
2022-12-05T20:44:11.784Z,96899.63
2022-12-05T20:46:39.661Z,96902.91
2022-12-05T20:49:07.260Z,96906.16
2022-12-05T20:51:36.285Z,96906.16
2022-12-05T20:54:05.490Z,96908.06
2022-12-05T20:56:34.286Z,96902.09
2022-12-05T20:59:03.880Z,96906.44
2022-12-05T21:01:33.647Z,96898.84
2022-12-05T21:04:02.143Z,96900.44
2022-12-05T21:06:31.264Z,96904.53
2022-12-05T21:09:01.222Z,96899.88
2022-12-05T21:11:30.773Z,96898.13
2022-12-05T21:14:00.158Z,96904.94
2022-12-05T21:16:28.247Z,96893.91
2022-12-05T21:18:56.559Z,96895.53
2022-12-05T21:21:26.958Z,96900.69
2022-12-05T21:23:56.657Z,96902.06
2022-12-05T21:26:27.550Z,96889.94
2022-12-05T21:28:55.624Z,96892.38
2022-12-05T21:31:26.268Z,96896.88
2022-12-05T21:33:55.784Z,96895.25
2022-12-05T21:36:25.774Z,96896.06
2022-12-05T21:38:56.229Z,96893.34
2022-12-05T21:41:26.360Z,96892.50
2022-12-05T21:43:55.617Z,96894.84
2022-12-05T21:46:24.650Z,96895.63
2022-12-05T21:48:52.634Z,96891.41
2022-12-05T21:51:21.011Z,96889.78
2022-12-05T21:53:48.834Z,96894.16
2022-12-05T21:56:23.000Z,96905.59
2022-12-05T21:58:53.259Z,96898.78
2022-12-05T22:01:22.910Z,96896.34
2022-12-05T22:03:52.715Z,96902.34
2022-12-05T22:06:20.369Z,96903.03
2022-12-05T22:08:48.127Z,96905.59
2022-12-05T22:11:18.082Z,96897.97
2022-12-05T22:13:46.303Z,96896.59
2022-12-05T22:16:15.928Z,96894.84
2022-12-05T22:18:43.579Z,96899.03
2022-12-05T22:21:12.990Z,96896.19
2022-12-05T22:23:40.620Z,96895.09
2022-12-05T22:26:11.073Z,96895.09
2022-12-05T22:28:39.739Z,96893.44
2022-12-05T22:31:10.283Z,96899.28
2022-12-05T22:33:39.890Z,96892.06
2022-12-05T22:36:09.392Z,96898.03
2022-12-05T22:38:39.549Z,96885.78
2022-12-05T22:41:10.000Z,96888.50
2022-12-05T22:43:38.940Z,96887.03
2022-12-05T22:46:07.685Z,96879.41
2022-12-05T22:48:36.173Z,96886.22
2022-12-05T22:51:06.612Z,96880.22
2022-12-05T22:53:34.754Z,96873.41
2022-12-05T22:56:04.418Z,96876.00
2022-12-05T22:58:32.826Z,96873.41
2022-12-05T23:01:10.243Z,96872.59
2022-12-05T23:03:38.133Z,96882.81
2022-12-05T23:06:11.754Z,96876.16
2022-12-05T23:08:42.481Z,96880.50
2022-12-05T23:11:11.003Z,96877.91
2022-12-05T23:13:39.900Z,96873.72
2022-12-05T23:16:09.468Z,96866.09
2022-12-05T23:18:46.678Z,96865.13
2022-12-05T23:21:19.603Z,96862.56
2022-12-05T23:23:47.524Z,96873.41
2022-12-05T23:26:16.559Z,96872.91
2022-12-05T23:28:44.849Z,96877.25
2022-12-05T23:31:13.762Z,96881.72
2022-12-05T23:33:42.678Z,96880.13
2022-12-05T23:36:11.087Z,96879.44
2022-12-05T23:38:42.123Z,96877.16
2022-12-05T23:41:13.409Z,96871.31
2022-12-05T23:43:41.520Z,96882.59
2022-12-05T23:46:09.897Z,96875.25
2022-12-05T23:48:37.888Z,96876.38
2022-12-05T23:51:09.422Z,96878.94
2022-12-05T23:53:39.419Z,96872.81
2022-12-05T23:56:11.435Z,96882.47
2022-12-05T23:58:39.560Z,96871.31
